Time,TemperatureF,DewpointF,PressureIn,WindDirection,WindDirectionDegrees,WindSpeedMPH,WindSpeedGustMPH,Humidity,HourlyPrecipIn,Conditions,Clouds,dailyrainin,SolarRadiationWatts/m^2,SoftwareType,DateUTC
2013-03-13 00:12:00,45.0,28.0,-100.00,ESE,119,2.0,3.0,52,-99.99,,,-99.99,0.000000,,2013-03-13 07:12:00,
2013-03-13 00:22:00,44.0,27.0,-100.00,ESE,111,3.0,4.0,51,-99.99,,,-99.99,0.000000,,2013-03-13 07:22:00,
2013-03-13 00:32:00,45.0,27.0,-100.00,SE,125,4.0,5.0,49,-99.99,,,-99.99,0.000000,,2013-03-13 07:32:00,
2013-03-13 00:42:00,46.0,27.0,-100.00,SE,125,2.0,4.0,48,-99.99,,,-99.99,0.000000,,2013-03-13 07:42:00,
2013-03-13 01:02:00,44.0,27.0,-100.00,ESE,110,3.0,4.0,51,-99.99,,,-99.99,0.000000,,2013-03-13 08:02:00,
2013-03-13 01:12:00,44.0,28.0,-100.00,SE,127,1.0,3.0,52,-99.99,,,-99.99,0.000000,,2013-03-13 08:12:00,
2013-03-13 01:22:00,45.0,28.0,-100.00,SE,146,1.0,3.0,51,-99.99,,,-99.99,0.000000,,2013-03-13 08:22:00,
2013-03-13 01:42:00,44.0,28.0,-100.00,SE,125,2.0,3.0,54,-99.99,,,-99.99,0.000000,,2013-03-13 08:42:00,
2013-03-13 01:52:00,43.0,28.0,-100.00,SE,129,2.0,3.0,54,-99.99,,,-99.99,0.000000,,2013-03-13 08:52:00,
2013-03-13 02:02:00,43.0,29.0,-100.00,SE,129,2.0,3.0,57,-99.99,,,-99.99,0.000000,,2013-03-13 09:02:00,
2013-03-13 02:12:00,43.0,29.0,-100.00,ESE,120,3.0,4.0,58,-99.99,,,-99.99,0.000000,,2013-03-13 09:12:00,
2013-03-13 02:22:00,44.0,28.0,-100.00,ESE,114,2.0,4.0,53,-99.99,,,-99.99,0.000000,,2013-03-13 09:22:00,
2013-03-13 02:32:00,44.0,28.0,-100.00,SE,135,2.0,3.0,52,-99.99,,,-99.99,0.000000,,2013-03-13 09:32:00,
2013-03-13 02:42:00,42.0,28.0,-100.00,ESE,121,1.0,3.0,57,-99.99,,,-99.99,0.000000,,2013-03-13 09:42:00,
2013-03-13 02:52:00,42.0,29.0,-100.00,SE,130,3.0,4.0,60,-99.99,,,-99.99,0.000000,,2013-03-13 09:52:00,
2013-03-13 03:01:00,43.0,28.0,-100.00,ESE,122,3.0,4.0,54,-99.99,,,-99.99,0.000000,,2013-03-13 10:01:00,
2013-03-13 03:11:00,44.0,27.0,-100.00,ESE,123,3.0,5.0,51,-99.99,,,-99.99,0.000000,,2013-03-13 10:11:00,
2013-03-13 03:22:00,44.0,28.0,-100.00,SE,124,2.0,3.0,53,-99.99,,,-99.99,0.000000,,2013-03-13 10:22:00,
2013-03-13 03:32:00,42.0,28.0,-100.00,SE,126,2.0,4.0,57,-99.99,,,-99.99,0.000000,,2013-03-13 10:32:00,
2013-03-13 03:42:00,42.0,28.0,-100.00,ESE,113,1.0,3.0,57,-99.99,,,-99.99,0.000000,,2013-03-13 10:42:00,
2013-03-13 03:52:00,41.0,27.0,-100.00,South,169,1.0,4.0,58,-99.99,,,-99.99,0.000000,,2013-03-13 10:52:00,
2013-03-13 04:02:00,40.0,28.0,-100.00,ESE,103,1.0,4.0,61,-99.99,,,-99.99,0.000000,,2013-03-13 11:02:00,
2013-03-13 04:12:00,41.0,29.0,-100.00,East,100,2.0,4.0,61,-99.99,,,-99.99,0.000000,,2013-03-13 11:12:00,
2013-03-13 04:22:00,41.0,29.0,-100.00,East,96,2.0,4.0,61,-99.99,,,-99.99,0.000000,,2013-03-13 11:22:00,
2013-03-13 04:32:00,40.0,28.0,-100.00,ENE,67,1.0,3.0,61,-99.99,,,-99.99,0.000000,,2013-03-13 11:32:00,
2013-03-13 04:52:00,43.0,28.0,-100.00,ESE,105,2.0,4.0,54,-99.99,,,-99.99,0.000000,,2013-03-13 11:52:00,
2013-03-13 05:02:00,44.0,27.0,-100.00,East,94,2.0,3.0,51,-99.99,,,-99.99,0.000000,,2013-03-13 12:02:00,
2013-03-13 05:12:00,44.0,27.0,-100.00,ESE,109,2.0,4.0,50,-99.99,,,-99.99,0.000000,,2013-03-13 12:12:00,
2013-03-13 05:22:00,44.0,27.0,-100.00,ESE,111,2.0,4.0,51,-99.99,,,-99.99,0.000000,,2013-03-13 12:22:00,
2013-03-13 05:32:00,48.0,27.0,-100.00,ESE,110,2.0,5.0,43,-99.99,,,-99.99,0.000000,,2013-03-13 12:32:00,
2013-03-13 05:42:00,49.0,26.0,-100.00,ESE,121,2.0,4.0,41,-99.99,,,-99.99,0.000000,,2013-03-13 12:42:00,
2013-03-13 05:52:00,48.0,27.0,-100.00,ESE,113,3.0,5.0,44,-99.99,,,-99.99,0.000000,,2013-03-13 12:52:00,
2013-03-13 06:02:00,46.0,27.0,-100.00,ENE,76,3.0,5.0,48,-99.99,,,-99.99,0.000000,,2013-03-13 13:02:00,
2013-03-13 06:11:00,46.0,27.0,-100.00,East,89,2.0,4.0,48,-99.99,,,-99.99,0.000000,,2013-03-13 13:11:00,
2013-03-13 06:22:00,45.0,27.0,-100.00,ENE,65,1.0,3.0,49,-99.99,,,-99.99,0.000000,,2013-03-13 13:22:00,
2013-03-13 06:32:00,47.0,26.0,-100.00,East,86,2.0,4.0,44,-99.99,,,-99.99,0.000000,,2013-03-13 13:32:00,
2013-03-13 06:42:00,48.0,26.0,-100.00,East,88,2.0,4.0,42,-99.99,,,-99.99,0.000000,,2013-03-13 13:42:00,
2013-03-13 06:52:00,48.0,27.0,-100.00,East,94,1.0,5.0,43,-99.99,,,-99.99,0.000000,,2013-03-13 13:52:00,
2013-03-13 07:02:00,48.0,25.0,-100.00,East,94,2.0,4.0,41,-99.99,,,-99.99,0.000000,,2013-03-13 14:02:00,
2013-03-13 07:11:00,51.0,25.0,-100.00,SE,126,2.0,4.0,36,-99.99,,,-99.99,0.000000,,2013-03-13 14:11:00,
2013-03-13 07:21:00,52.0,25.0,-100.00,SE,138,2.0,5.0,34,-99.99,,,-99.99,0.000000,,2013-03-13 14:21:00,
2013-03-13 07:33:00,49.0,26.0,-100.00,SE,135,1.0,2.0,41,-99.99,,,-99.99,0.000000,,2013-03-13 14:33:00,
2013-03-13 07:42:00,49.0,26.0,-100.00,ESE,120,1.0,4.0,41,-99.99,,,-99.99,0.000000,,2013-03-13 14:42:00,
2013-03-13 07:52:00,50.0,25.0,-100.00,SSE,166,1.0,3.0,38,-99.99,,,-99.99,0.000000,,2013-03-13 14:52:00,
2013-03-13 08:02:00,52.0,25.0,-100.00,South,169,0.0,2.0,35,-99.99,,,-99.99,0.000000,,2013-03-13 15:02:00,
2013-03-13 08:11:00,54.0,25.0,-100.00,WSW,243,0.0,2.0,32,-99.99,,,-99.99,0.000000,,2013-03-13 15:11:00,
2013-03-13 08:32:00,55.0,25.0,-100.00,WSW,258,2.0,3.0,31,-99.99,,,-99.99,0.000000,,2013-03-13 15:32:00,
2013-03-13 08:42:00,58.0,26.0,-100.00,SW,222,1.0,3.0,29,-99.99,,,-99.99,0.000000,,2013-03-13 15:42:00,
2013-03-13 08:52:00,62.0,25.0,-100.00,West,265,2.0,3.0,24,-99.99,,,-99.99,0.000000,,2013-03-13 15:52:00,
2013-03-13 09:02:00,66.0,26.0,-100.00,ENE,64,4.0,7.0,22,-99.99,,,-99.99,0.000000,,2013-03-13 16:02:00,
2013-03-13 09:12:00,68.0,25.0,-100.00,ENE,65,4.0,8.0,20,-99.99,,,-99.99,0.000000,,2013-03-13 16:12:00,
2013-03-13 09:22:00,70.0,23.0,-100.00,ENE,76,6.0,12.0,17,-99.99,,,-99.99,0.000000,,2013-03-13 16:22:00,
2013-03-13 09:32:00,71.0,23.0,-100.00,ENE,78,8.0,15.0,16,-99.99,,,-99.99,0.000000,,2013-03-13 16:32:00,
2013-03-13 09:42:00,71.0,21.0,-100.00,East,81,9.0,18.0,15,-99.99,,,-99.99,0.000000,,2013-03-13 16:42:00,
2013-03-13 09:52:00,72.0,22.0,-100.00,East,81,9.0,17.0,15,-99.99,,,-99.99,0.000000,,2013-03-13 16:52:00,
2013-03-13 10:02:00,72.0,22.0,-100.00,East,83,7.0,15.0,15,-99.99,,,-99.99,0.000000,,2013-03-13 17:02:00,
2013-03-13 10:11:00,73.0,21.0,-100.00,East,80,8.0,15.0,14,-99.99,,,-99.99,0.000000,,2013-03-13 17:11:00,
2013-03-13 10:22:00,73.0,21.0,-100.00,ENE,72,8.0,18.0,14,-99.99,,,-99.99,0.000000,,2013-03-13 17:22:00,
2013-03-13 10:32:00,74.0,22.0,-100.00,ENE,78,10.0,23.0,14,-99.99,,,-99.99,0.000000,,2013-03-13 17:32:00,
2013-03-13 10:42:00,74.0,20.0,-100.00,ENE,77,10.0,18.0,13,-99.99,,,-99.99,0.000000,,2013-03-13 17:42:00,
2013-03-13 10:53:00,74.0,20.0,-100.00,ENE,78,10.0,24.0,13,-99.99,,,-99.99,0.000000,,2013-03-13 17:53:00,
2013-03-13 11:02:00,74.0,20.0,-100.00,ENE,74,9.0,18.0,13,-99.99,,,-99.99,0.000000,,2013-03-13 18:02:00,
2013-03-13 11:12:00,75.0,21.0,-100.00,East,82,10.0,19.0,13,-99.99,,,-99.99,0.000000,,2013-03-13 18:12:00,
2013-03-13 11:22:00,75.0,21.0,-100.00,ENE,70,10.0,19.0,13,-99.99,,,-99.99,0.000000,,2013-03-13 18:22:00,
2013-03-13 11:32:00,75.0,21.0,-100.00,ENE,78,9.0,17.0,13,-99.99,,,-99.99,0.000000,,2013-03-13 18:32:00,
2013-03-13 11:42:00,75.0,21.0,-100.00,East,82,9.0,17.0,13,-99.99,,,-99.99,0.000000,,2013-03-13 18:42:00,
2013-03-13 11:52:00,76.0,22.0,-100.00,East,82,9.0,17.0,13,-99.99,,,-99.99,0.000000,,2013-03-13 18:52:00,
2013-03-13 12:02:00,76.0,20.0,-100.00,East,81,9.0,17.0,12,-99.99,,,-99.99,0.000000,,2013-03-13 19:02:00,
2013-03-13 12:12:00,76.0,20.0,-100.00,East,82,7.0,13.0,12,-99.99,,,-99.99,0.000000,,2013-03-13 19:12:00,
2013-03-13 12:22:00,77.0,20.0,-100.00,East,88,10.0,16.0,12,-99.99,,,-99.99,0.000000,,2013-03-13 19:22:00,
2013-03-13 12:32:00,77.0,20.0,-100.00,East,88,10.0,16.0,12,-99.99,,,-99.99,0.000000,,2013-03-13 19:32:00,
2013-03-13 12:42:00,77.0,20.0,-100.00,ESE,103,12.0,21.0,12,-99.99,,,-99.99,0.000000,,2013-03-13 19:42:00,
2013-03-13 12:52:00,77.0,20.0,-100.00,East,97,11.0,17.0,12,-99.99,,,-99.99,0.000000,,2013-03-13 19:52:00,
2013-03-13 13:02:00,78.0,21.0,-100.00,East,96,11.0,17.0,12,-99.99,,,-99.99,0.000000,,2013-03-13 20:02:00,
2013-03-13 13:11:00,77.0,20.0,-100.00,ESE,109,12.0,18.0,12,-99.99,,,-99.99,0.000000,,2013-03-13 20:11:00,
2013-03-13 13:22:00,78.0,21.0,-100.00,ESE,107,11.0,19.0,12,-99.99,,,-99.99,0.000000,,2013-03-13 20:22:00,
2013-03-13 13:32:00,78.0,21.0,-100.00,East,101,10.0,18.0,12,-99.99,,,-99.99,0.000000,,2013-03-13 20:32:00,
2013-03-13 13:41:00,79.0,20.0,-100.00,East,101,10.0,18.0,11,-99.99,,,-99.99,0.000000,,2013-03-13 20:41:00,
2013-03-13 13:52:00,79.0,22.0,-100.00,ESE,112,10.0,16.0,12,-99.99,,,-99.99,0.000000,,2013-03-13 20:52:00,
2013-03-13 14:02:00,79.0,20.0,-100.00,ESE,103,10.0,18.0,11,-99.99,,,-99.99,0.000000,,2013-03-13 21:02:00,
2013-03-13 14:11:00,80.0,21.0,-100.00,East,101,9.0,17.0,11,-99.99,,,-99.99,0.000000,,2013-03-13 21:11:00,
2013-03-13 14:21:00,80.0,21.0,-100.00,East,97,8.0,15.0,11,-99.99,,,-99.99,0.000000,,2013-03-13 21:21:00,
2013-03-13 14:32:00,80.0,21.0,-100.00,East,97,8.0,15.0,11,-99.99,,,-99.99,0.000000,,2013-03-13 21:32:00,
2013-03-13 14:41:00,81.0,19.0,-100.00,East,82,7.0,12.0,10,-99.99,,,-99.99,0.000000,,2013-03-13 21:41:00,
2013-03-13 14:51:00,81.0,19.0,-100.00,East,87,7.0,15.0,10,-99.99,,,-99.99,0.000000,,2013-03-13 21:51:00,
2013-03-13 15:02:00,80.0,19.0,-100.00,East,92,8.0,17.0,10,-99.99,,,-99.99,0.000000,,2013-03-13 22:02:00,
2013-03-13 15:12:00,81.0,19.0,-100.00,East,80,6.0,13.0,10,-99.99,,,-99.99,0.000000,,2013-03-13 22:12:00,
2013-03-13 15:22:00,81.0,19.0,-100.00,East,90,7.0,11.0,10,-99.99,,,-99.99,0.000000,,2013-03-13 22:22:00,
2013-03-13 15:31:00,81.0,19.0,-100.00,ENE,61,8.0,15.0,10,-99.99,,,-99.99,0.000000,,2013-03-13 22:31:00,
2013-03-13 15:42:00,81.0,19.0,-100.00,ENE,59,7.0,13.0,10,-99.99,,,-99.99,0.000000,,2013-03-13 22:42:00,
2013-03-13 15:52:00,82.0,20.0,-100.00,NE,54,7.0,19.0,10,-99.99,,,-99.99,0.000000,,2013-03-13 22:52:00,
2013-03-13 16:12:00,83.0,23.0,-100.00,NNW,336,2.0,11.0,11,-99.99,,,-99.99,0.000000,,2013-03-13 23:12:00,
2013-03-13 16:22:00,83.0,23.0,-100.00,West,263,5.0,13.0,11,-99.99,,,-99.99,0.000000,,2013-03-13 23:22:00,
2013-03-13 16:32:00,82.0,24.0,-100.00,West,273,6.0,15.0,12,-99.99,,,-99.99,0.000000,,2013-03-13 23:32:00,
2013-03-13 16:42:00,81.0,31.0,-100.00,West,281,6.0,12.0,16,-99.99,,,-99.99,0.000000,,2013-03-13 23:42:00,
2013-03-13 16:52:00,80.0,28.0,-100.00,West,265,7.0,15.0,15,-99.99,,,-99.99,0.000000,,2013-03-13 23:52:00,
2013-03-13 17:02:00,80.0,30.0,-100.00,West,271,5.0,11.0,16,-99.99,,,-99.99,0.000000,,2013-03-14 00:02:00,
2013-03-13 17:12:00,79.0,32.0,-100.00,WSW,252,6.0,11.0,18,-99.99,,,-99.99,0.000000,,2013-03-14 00:12:00,
2013-03-13 17:22:00,80.0,34.0,-100.00,WSW,246,5.0,11.0,19,-99.99,,,-99.99,0.000000,,2013-03-14 00:22:00,
2013-03-13 17:32:00,78.0,36.0,-100.00,WSW,244,5.0,11.0,22,-99.99,,,-99.99,0.000000,,2013-03-14 00:32:00,
2013-03-13 17:42:00,78.0,37.0,-100.00,WSW,239,7.0,12.0,23,-99.99,,,-99.99,0.000000,,2013-03-14 00:42:00,
2013-03-13 17:52:00,77.0,38.0,-100.00,WSW,251,8.0,12.0,25,-99.99,,,-99.99,0.000000,,2013-03-14 00:52:00,
2013-03-13 18:02:00,77.0,39.0,-100.00,WSW,248,7.0,12.0,26,-99.99,,,-99.99,0.000000,,2013-03-14 01:02:00,
2013-03-13 18:12:00,76.0,40.0,-100.00,WSW,250,7.0,12.0,27,-99.99,,,-99.99,0.000000,,2013-03-14 01:12:00,
2013-03-13 18:22:00,76.0,41.0,-100.00,WSW,252,7.0,10.0,28,-99.99,,,-99.99,0.000000,,2013-03-14 01:22:00,
2013-03-13 18:32:00,75.0,41.0,-100.00,WSW,257,7.0,11.0,29,-99.99,,,-99.99,0.000000,,2013-03-14 01:32:00,
2013-03-13 18:42:00,75.0,41.0,-100.00,WSW,245,4.0,7.0,29,-99.99,,,-99.99,0.000000,,2013-03-14 01:42:00,
2013-03-13 18:52:00,74.0,41.0,-100.00,WSW,248,4.0,8.0,30,-99.99,,,-99.99,0.000000,,2013-03-14 01:52:00,
2013-03-13 19:02:00,73.0,40.0,-100.00,WSW,253,3.0,5.0,30,-99.99,,,-99.99,0.000000,,2013-03-14 02:02:00,
2013-03-13 19:11:00,73.0,40.0,-100.00,SW,234,1.0,4.0,30,-99.99,,,-99.99,0.000000,,2013-03-14 02:11:00,
2013-03-13 19:22:00,72.0,40.0,-100.00,ESE,108,2.0,3.0,31,-99.99,,,-99.99,0.000000,,2013-03-14 02:22:00,
2013-03-13 19:32:00,70.0,41.0,-100.00,ESE,114,2.0,4.0,35,-99.99,,,-99.99,0.000000,,2013-03-14 02:32:00,
2013-03-13 19:42:00,70.0,41.0,-100.00,ESE,114,2.0,4.0,35,-99.99,,,-99.99,0.000000,,2013-03-14 02:42:00,
2013-03-13 19:51:00,70.0,41.0,-100.00,ESE,114,2.0,4.0,35,-99.99,,,-99.99,0.000000,,2013-03-14 02:51:00,
2013-03-13 20:01:00,63.0,42.0,-100.00,SE,128,2.0,3.0,46,-99.99,,,-99.99,0.000000,,2013-03-14 03:01:00,
2013-03-13 20:12:00,61.0,37.0,-100.00,East,96,2.0,4.0,41,-99.99,,,-99.99,0.000000,,2013-03-14 03:12:00,
2013-03-13 20:22:00,61.0,32.0,-100.00,East,81,2.0,3.0,34,-99.99,,,-99.99,0.000000,,2013-03-14 03:22:00,
2013-03-13 20:32:00,61.0,33.0,-100.00,ENE,63,1.0,3.0,35,-99.99,,,-99.99,0.000000,,2013-03-14 03:32:00,
2013-03-13 20:42:00,60.0,34.0,-100.00,SE,129,2.0,3.0,37,-99.99,,,-99.99,0.000000,,2013-03-14 03:42:00,
2013-03-13 20:52:00,58.0,38.0,-100.00,SE,145,1.0,3.0,47,-99.99,,,-99.99,0.000000,,2013-03-14 03:52:00,
2013-03-13 21:11:00,56.0,34.0,-100.00,ESE,114,2.0,2.0,44,-99.99,,,-99.99,0.000000,,2013-03-14 04:11:00,
2013-03-13 21:22:00,56.0,34.0,-100.00,East,90,1.0,2.0,44,-99.99,,,-99.99,0.000000,,2013-03-14 04:22:00,
2013-03-13 21:32:00,54.0,35.0,-100.00,SE,133,1.0,2.0,49,-99.99,,,-99.99,0.000000,,2013-03-14 04:32:00,
2013-03-13 21:52:00,54.0,36.0,-100.00,SE,134,2.0,3.0,50,-99.99,,,-99.99,0.000000,,2013-03-14 04:52:00,
2013-03-13 22:02:00,54.0,36.0,-100.00,SE,136,1.0,2.0,51,-99.99,,,-99.99,0.000000,,2013-03-14 05:02:00,
2013-03-13 22:12:00,53.0,36.0,-100.00,ESE,121,1.0,2.0,52,-99.99,,,-99.99,0.000000,,2013-03-14 05:12:00,
2013-03-13 22:22:00,53.0,36.0,-100.00,ESE,121,2.0,4.0,52,-99.99,,,-99.99,0.000000,,2013-03-14 05:22:00,
2013-03-13 22:32:00,53.0,36.0,-100.00,SSE,152,1.0,3.0,52,-99.99,,,-99.99,0.000000,,2013-03-14 05:32:00,
2013-03-13 22:42:00,49.0,37.0,-100.00,SE,127,3.0,5.0,63,-99.99,,,-99.99,0.000000,,2013-03-14 05:42:00,
2013-03-13 22:52:00,50.0,37.0,-100.00,East,98,2.0,5.0,60,-99.99,,,-99.99,0.000000,,2013-03-14 05:52:00,
2013-03-13 23:02:00,51.0,35.0,-100.00,East,79,1.0,2.0,54,-99.99,,,-99.99,0.000000,,2013-03-14 06:02:00,
2013-03-13 23:12:00,49.0,36.0,-100.00,ESE,114,2.0,3.0,61,-99.99,,,-99.99,0.000000,,2013-03-14 06:12:00,
2013-03-13 23:21:00,49.0,34.0,-100.00,ENE,68,2.0,2.0,55,-99.99,,,-99.99,0.000000,,2013-03-14 06:21:00,
2013-03-13 23:32:00,49.0,33.0,-100.00,ENE,67,2.0,3.0,53,-99.99,,,-99.99,0.000000,,2013-03-14 06:32:00,
2013-03-13 23:42:00,49.0,33.0,-100.00,ENE,67,2.0,4.0,53,-99.99,,,-99.99,0.000000,,2013-03-14 06:42:00,
2013-03-13 23:52:00,48.0,34.0,-100.00,East,90,2.0,3.0,58,-99.99,,,-99.99,0.000000,,2013-03-14 06:52:00,